Barkman, Texas
Current Conditions -  °F | °C
As of 5:53 PM on Saturday 22 Nov 2014 (Local Time) from KTXK Reporting Station
Overcast Overcast  
Wind Chill: 64°   Ceiling: 4700
Heat Index: 64°   Visibility: 10mi
Dew Point: 57°   Wind: 5mph
Humidity: 78%   Direction: 120°ESE
Pressure: 29.93"   Gusts: NA
Location:  33.474°N, 94.2882°W
Report Text: KTXK 222353Z 12004KT 10SM FEW036 OVC047 18/14 A2993 RMK AO2 SLP131 T01780139 10217 20178 58007
Loading
Personal Weather Stations






























Interactive Weather Map New forecast layout! Learn more

10-Day Weather Forecast

Advertisements
Track Severe Weather on mobile